createdAt,value
2019-04-10T00:00:41.306Z,27.07
2019-04-10T00:03:24.892Z,33.17
2019-04-10T00:05:42.583Z,28.97
2019-04-10T00:08:12.392Z,25.83
2019-04-10T00:10:42.007Z,23.07
2019-04-10T00:13:12.126Z,19.00
2019-04-10T00:15:42.776Z,25.27
2019-04-10T00:18:12.329Z,23.50
2019-04-10T00:20:43.421Z,26.80
2019-04-10T00:23:13.195Z,23.67
2019-04-10T00:25:43.431Z,25.93
2019-04-10T00:28:13.200Z,23.90
2019-04-10T00:30:43.071Z,25.03
2019-04-10T00:33:12.636Z,23.73
2019-04-10T00:35:42.162Z,24.70
2019-04-10T00:38:11.670Z,23.80
2019-04-10T00:40:41.596Z,22.10
2019-04-10T00:43:11.129Z,22.57
2019-04-10T00:45:41.772Z,21.83
2019-04-10T00:48:11.966Z,22.27
2019-04-10T00:50:42.505Z,27.10
2019-04-10T00:53:13.494Z,22.97
2019-04-10T00:55:44.056Z,24.50
2019-04-10T00:58:14.112Z,25.47
2019-04-10T01:00:43.727Z,23.07
2019-04-10T01:03:15.837Z,19.20
2019-04-10T01:05:45.325Z,21.23
2019-04-10T01:08:14.806Z,22.10
2019-04-10T01:10:44.322Z,21.23
2019-04-10T01:13:13.806Z,21.80
2019-04-10T01:15:43.328Z,22.23
2019-04-10T01:18:13.113Z,17.10
2019-04-10T01:20:42.687Z,16.40
2019-04-10T01:23:12.235Z,23.23
2019-04-10T01:25:42.895Z,16.90
2019-04-10T01:28:12.589Z,18.30
2019-04-10T01:30:42.355Z,20.13
2019-04-10T01:33:12.434Z,15.77
2019-04-10T01:35:42.610Z,18.53
2019-04-10T01:38:12.175Z,16.03
2019-04-10T01:40:41.664Z,12.23
2019-04-10T01:43:14.518Z,16.00
2019-04-10T01:45:43.986Z,15.93
2019-04-10T01:48:13.589Z,10.57
2019-04-10T01:50:43.118Z,14.07
2019-04-10T01:53:13.411Z,12.70
2019-04-10T01:55:43.057Z,11.37
2019-04-10T01:58:14.088Z,11.33
2019-04-10T02:00:45.965Z,11.13
2019-04-10T02:03:16.010Z,18.33
2019-04-10T02:05:47.054Z,8.70
2019-04-10T02:08:17.868Z,11.03
2019-04-10T02:10:48.183Z,12.73
2019-04-10T02:13:17.680Z,9.27
2019-04-10T02:15:47.147Z,8.73
2019-04-10T02:18:17.250Z,9.67
2019-04-10T02:20:47.361Z,10.10
2019-04-10T02:23:16.979Z,11.27
2019-04-10T02:25:47.211Z,10.80
2019-04-10T02:28:16.715Z,7.03
2019-04-10T02:30:47.772Z,9.27
2019-04-10T02:33:18.604Z,8.30
2019-04-10T02:35:48.401Z,13.00
2019-04-10T02:38:37.431Z,9.60
2019-04-10T02:40:50.094Z,7.87
2019-04-10T02:43:21.139Z,7.83
2019-04-10T02:45:51.160Z,9.73
2019-04-10T02:48:20.868Z,7.50
2019-04-10T02:50:51.326Z,13.60
2019-04-10T02:53:21.570Z,17.47
2019-04-10T02:55:51.638Z,6.23
2019-04-10T02:58:22.344Z,11.43
2019-04-10T03:00:54.479Z,7.60
2019-04-10T03:03:23.324Z,9.87
2019-04-10T03:05:54.176Z,10.33
2019-04-10T03:08:43.094Z,9.63
2019-04-10T03:11:01.513Z,8.43
2019-04-10T03:13:27.718Z,8.13
2019-04-10T03:15:57.853Z,7.10
2019-04-10T03:18:28.336Z,7.20
2019-04-10T03:20:58.441Z,6.47
2019-04-10T03:23:27.969Z,11.50
2019-04-10T03:25:57.471Z,9.47
2019-04-10T03:28:27.121Z,5.80
2019-04-10T03:30:59.996Z,8.67
2019-04-10T03:33:32.368Z,9.83
2019-04-10T03:35:58.997Z,8.50
2019-04-10T03:38:28.556Z,9.60
2019-04-10T03:40:58.513Z,8.63
2019-04-10T03:43:32.003Z,7.67
2019-04-10T03:46:03.294Z,9.90
2019-04-10T03:48:33.406Z,7.70
2019-04-10T03:51:06.011Z,9.73
2019-04-10T03:53:36.312Z,9.80
2019-04-10T03:56:06.202Z,7.33
2019-04-10T03:58:35.786Z,9.37
2019-04-10T04:01:05.420Z,8.40
2019-04-10T04:03:35.092Z,8.23
2019-04-10T04:06:04.640Z,7.97
2019-04-10T04:08:35.296Z,6.83
2019-04-10T04:11:05.427Z,8.43
2019-04-10T04:13:35.521Z,6.43
2019-04-10T04:16:05.409Z,9.07
2019-04-10T04:18:35.336Z,11.27
2019-04-10T04:21:05.571Z,8.10
2019-04-10T04:23:36.087Z,11.80
2019-04-10T04:26:05.952Z,9.23
2019-04-10T04:28:36.232Z,10.07
2019-04-10T04:31:05.880Z,9.90
2019-04-10T04:33:36.125Z,7.10
2019-04-10T04:36:06.121Z,7.80
2019-04-10T04:38:36.745Z,10.83
2019-04-10T04:41:06.866Z,8.37
2019-04-10T04:43:37.070Z,9.87
2019-04-10T04:46:06.907Z,9.63
2019-04-10T04:48:37.377Z,7.50
2019-04-10T04:51:06.835Z,5.60
2019-04-10T04:53:36.475Z,8.13
2019-04-10T04:56:07.279Z,8.43
2019-04-10T04:58:38.228Z,10.47
2019-04-10T05:01:08.795Z,14.17
2019-04-10T05:03:38.187Z,7.73
2019-04-10T05:06:08.954Z,6.80
2019-04-10T05:08:38.412Z,8.00
2019-04-10T05:11:07.951Z,13.33
2019-04-10T05:13:38.382Z,8.27
2019-04-10T05:16:08.198Z,8.70
2019-04-10T05:18:37.814Z,10.60
2019-04-10T05:21:07.221Z,7.73
2019-04-10T05:23:36.701Z,11.60
2019-04-10T05:26:06.207Z,8.73
2019-04-10T05:28:36.725Z,8.47
2019-04-10T05:31:06.787Z,8.23
2019-04-10T05:33:36.748Z,8.30
2019-04-10T05:36:07.246Z,10.47
2019-04-10T05:38:37.612Z,6.90
2019-04-10T05:41:07.234Z,8.53
2019-04-10T05:43:36.779Z,7.43
2019-04-10T05:46:07.130Z,9.53
2019-04-10T05:48:36.687Z,10.23
2019-04-10T05:51:07.892Z,8.63
2019-04-10T05:53:37.348Z,9.47
2019-04-10T05:56:06.987Z,7.37
2019-04-10T05:58:36.636Z,10.83
2019-04-10T06:01:07.578Z,9.53
2019-04-10T06:03:37.067Z,10.23
2019-04-10T06:06:06.532Z,8.97
2019-04-10T06:08:36.041Z,11.63
2019-04-10T06:11:06.594Z,12.47
2019-04-10T06:13:36.839Z,10.13
2019-04-10T06:16:07.609Z,9.47
2019-04-10T06:18:38.214Z,11.60
2019-04-10T06:21:08.766Z,9.73
2019-04-10T06:23:39.227Z,11.07
2019-04-10T06:26:10.106Z,8.80
2019-04-10T06:28:40.125Z,10.73
2019-04-10T06:31:09.619Z,12.90
2019-04-10T06:33:40.087Z,9.30
2019-04-10T06:36:11.197Z,10.47
2019-04-10T06:38:41.228Z,11.47
2019-04-10T06:41:14.541Z,10.63
2019-04-10T06:43:43.463Z,12.90
2019-04-10T06:46:12.963Z,11.37
2019-04-10T06:48:43.013Z,9.97
2019-04-10T06:51:12.524Z,12.37
2019-04-10T06:53:42.123Z,10.17
2019-04-10T06:56:11.568Z,14.60
2019-04-10T06:58:42.175Z,15.17
2019-04-10T07:01:12.616Z,9.40
2019-04-10T07:03:51.918Z,11.40
2019-04-10T07:06:18.633Z,10.80
2019-04-10T07:08:48.819Z,11.50
2019-04-10T07:11:18.047Z,14.47
2019-04-10T07:13:46.718Z,13.03
2019-04-10T07:16:16.280Z,14.70
2019-04-10T07:18:49.001Z,15.23
2019-04-10T07:21:17.909Z,10.90
2019-04-10T07:23:47.265Z,10.80
2019-04-10T07:26:21.749Z,16.30
2019-04-10T07:28:48.981Z,10.17
2019-04-10T07:31:19.385Z,14.03
2019-04-10T07:33:50.792Z,14.30
2019-04-10T07:36:20.332Z,13.60
2019-04-10T07:38:53.868Z,12.30
2019-04-10T07:41:24.685Z,16.00
2019-04-10T07:43:55.387Z,13.73
2019-04-10T07:46:24.187Z,11.00
2019-04-10T07:48:54.517Z,15.77
2019-04-10T07:51:24.122Z,8.83
2019-04-10T07:53:53.527Z,10.23
2019-04-10T07:56:24.618Z,12.03
2019-04-10T07:58:54.142Z,9.07
2019-04-10T08:01:24.270Z,17.30
2019-04-10T08:03:54.036Z,10.63
2019-04-10T08:06:23.603Z,10.63
2019-04-10T08:08:53.362Z,11.30
2019-04-10T08:11:23.939Z,12.43
2019-04-10T08:13:54.553Z,13.53
2019-04-10T08:16:25.363Z,11.20
2019-04-10T08:18:56.225Z,13.43
2019-04-10T08:21:26.010Z,15.93
2019-04-10T08:23:55.510Z,10.80
2019-04-10T08:26:25.020Z,15.60
2019-04-10T08:28:54.505Z,9.93
2019-04-10T08:31:24.013Z,10.87
2019-04-10T08:33:53.410Z,13.10
2019-04-10T08:36:23.506Z,12.23
2019-04-10T08:38:52.995Z,14.03
2019-04-10T08:41:23.334Z,12.40
2019-04-10T08:43:52.944Z,11.33
2019-04-10T08:46:22.563Z,15.97
2019-04-10T08:48:52.079Z,13.23
2019-04-10T08:51:21.503Z,15.73
2019-04-10T08:53:53.639Z,15.13
2019-04-10T08:56:22.604Z,16.80
2019-04-10T08:58:52.328Z,12.00
2019-04-10T09:01:23.007Z,11.43
2019-04-10T09:03:52.528Z,12.13
2019-04-10T09:06:22.911Z,16.20
2019-04-10T09:08:53.068Z,14.77
2019-04-10T09:11:26.238Z,10.90
2019-04-10T09:13:54.951Z,15.67
2019-04-10T09:16:24.754Z,13.30
2019-04-10T09:18:54.201Z,11.97
2019-04-10T09:21:23.811Z,11.20
2019-04-10T09:23:55.823Z,16.77
2019-04-10T09:26:24.699Z,12.70
2019-04-10T09:28:54.895Z,25.00
2019-04-10T09:31:24.540Z,13.63
2019-04-10T09:33:55.765Z,15.43
2019-04-10T09:36:25.460Z,12.70
2019-04-10T09:38:54.999Z,12.17
2019-04-10T09:41:24.506Z,12.70
2019-04-10T09:43:54.019Z,17.77
2019-04-10T09:46:24.689Z,14.83
2019-04-10T09:48:54.298Z,12.20
2019-04-10T09:51:23.691Z,14.50
2019-04-10T09:53:54.328Z,14.80
2019-04-10T09:56:23.814Z,14.80
2019-04-10T09:58:53.326Z,14.93
2019-04-10T10:01:24.069Z,11.30
2019-04-10T10:03:54.803Z,12.93
2019-04-10T10:06:30.724Z,12.43
2019-04-10T10:08:56.442Z,13.73
2019-04-10T10:11:27.203Z,14.33
2019-04-10T10:13:56.778Z,11.87
2019-04-10T10:16:27.204Z,11.53
2019-04-10T10:18:57.409Z,16.40
2019-04-10T10:21:26.942Z,13.60
2019-04-10T10:23:56.434Z,14.07
2019-04-10T10:26:26.103Z,17.53
2019-04-10T10:28:56.511Z,12.73
2019-04-10T10:31:26.338Z,15.17
2019-04-10T10:33:56.552Z,15.77
2019-04-10T10:36:36.640Z,13.60
2019-04-10T10:39:06.793Z,15.73
2019-04-10T10:41:31.918Z,13.97
2019-04-10T10:44:01.629Z,15.90
2019-04-10T10:46:31.503Z,12.37
2019-04-10T10:49:02.282Z,15.13
2019-04-10T10:51:32.792Z,11.73
2019-04-10T10:54:04.208Z,14.37
2019-04-10T10:56:34.152Z,11.70
2019-04-10T10:59:03.698Z,11.30
2019-04-10T11:01:33.275Z,14.13
2019-04-10T11:04:02.881Z,15.03
2019-04-10T11:06:33.139Z,12.23
2019-04-10T11:09:04.070Z,11.73
2019-04-10T11:11:35.212Z,11.73
2019-04-10T11:14:05.931Z,14.10
2019-04-10T11:16:36.579Z,16.67
2019-04-10T11:19:06.874Z,14.27
2019-04-10T11:21:38.981Z,11.20
2019-04-10T11:24:09.235Z,11.43
2019-04-10T11:26:39.922Z,13.20
2019-04-10T11:29:10.004Z,13.63
2019-04-10T11:31:39.703Z,12.83
2019-04-10T11:34:11.293Z,10.80
2019-04-10T11:36:42.561Z,15.33
2019-04-10T11:41:43.408Z,11.10
2019-04-10T11:44:14.331Z,12.83
2019-04-10T11:46:43.985Z,12.93
2019-04-10T11:49:15.407Z,14.40
2019-04-10T11:51:46.900Z,20.23
2019-04-10T11:54:18.139Z,19.60
2019-04-10T11:56:49.139Z,18.97
2019-04-10T11:59:23.005Z,40.20
2019-04-10T12:01:53.097Z,21.80
2019-04-10T12:04:23.093Z,15.07
2019-04-10T12:06:55.873Z,17.60
2019-04-10T12:10:08.051Z,16.60
2019-04-10T12:11:57.327Z,17.43
2019-04-10T12:14:27.870Z,10.23
2019-04-10T12:16:57.780Z,13.67
2019-04-10T12:19:27.512Z,13.33
2019-04-10T12:21:57.928Z,15.33
2019-04-10T12:24:27.533Z,12.17
2019-04-10T12:26:56.905Z,12.73
2019-04-10T12:29:26.740Z,14.63
2019-04-10T12:31:56.594Z,15.60
2019-04-10T12:34:26.550Z,14.43
2019-04-10T12:36:56.226Z,13.67
2019-04-10T12:39:25.882Z,13.70
2019-04-10T12:41:55.518Z,14.70
2019-04-10T12:44:25.486Z,14.23
2019-04-10T12:46:55.091Z,13.93
2019-04-10T12:49:25.497Z,10.33
2019-04-10T12:51:56.231Z,12.30
2019-04-10T12:54:25.899Z,11.70
2019-04-10T12:56:55.365Z,13.20
2019-04-10T12:59:25.672Z,12.00
2019-04-10T13:01:55.696Z,10.70
2019-04-10T13:04:25.161Z,11.20
2019-04-10T13:06:54.850Z,11.20
2019-04-10T13:09:24.325Z,12.83
2019-04-10T13:11:53.784Z,12.43
2019-04-10T13:14:24.357Z,14.80
2019-04-10T13:16:54.294Z,13.80
2019-04-10T13:19:24.887Z,12.73
2019-04-10T13:21:55.705Z,11.13
2019-04-10T13:24:25.673Z,11.70
2019-04-10T13:26:56.533Z,10.53
2019-04-10T13:29:26.023Z,9.77
2019-04-10T13:31:55.870Z,10.93
2019-04-10T13:34:25.576Z,16.67
2019-04-10T13:36:55.690Z,12.83
2019-04-10T13:39:25.341Z,9.37
2019-04-10T13:41:54.800Z,11.37
2019-04-10T13:44:24.492Z,16.30
2019-04-10T13:46:55.279Z,15.50
2019-04-10T13:49:26.156Z,10.17
2019-04-10T13:51:56.056Z,10.77
2019-04-10T13:54:26.411Z,11.73
2019-04-10T13:56:55.969Z,14.07
2019-04-10T13:59:25.369Z,10.83
2019-04-10T14:01:55.066Z,11.50
2019-04-10T14:04:25.801Z,12.73
2019-04-10T14:06:55.813Z,10.93
2019-04-10T14:09:36.855Z,11.33
2019-04-10T14:11:59.667Z,12.77
2019-04-10T14:14:29.333Z,14.17
2019-04-10T14:16:59.331Z,12.20
2019-04-10T14:19:30.004Z,14.47
2019-04-10T14:21:59.717Z,14.37
2019-04-10T14:24:39.523Z,16.30
2019-04-10T14:27:02.227Z,9.23
2019-04-10T14:29:32.245Z,12.37
2019-04-10T14:32:03.624Z,10.10
2019-04-10T14:34:33.186Z,11.07
2019-04-10T14:37:03.207Z,10.77
2019-04-10T14:39:33.557Z,9.93
2019-04-10T14:42:06.515Z,9.90
2019-04-10T14:44:36.778Z,10.23
2019-04-10T14:47:06.613Z,12.00
2019-04-10T14:49:36.187Z,13.03
2019-04-10T14:52:05.995Z,10.07
2019-04-10T14:54:35.748Z,15.63
2019-04-10T14:57:06.510Z,11.23
2019-04-10T14:59:36.153Z,8.73
2019-04-10T15:02:08.268Z,9.60
2019-04-10T15:04:37.988Z,40.00
2019-04-10T15:07:08.091Z,16.20
2019-04-10T15:09:38.006Z,9.93
2019-04-10T15:12:09.928Z,9.73
2019-04-10T15:14:39.572Z,12.33
2019-04-10T15:17:10.571Z,10.00
2019-04-10T15:19:40.659Z,10.67
2019-04-10T15:22:10.189Z,11.03
2019-04-10T15:24:39.768Z,10.77
2019-04-10T15:27:11.737Z,14.30
2019-04-10T15:29:42.960Z,9.53
2019-04-10T15:32:14.640Z,12.90
2019-04-10T15:34:44.273Z,10.17
2019-04-10T15:37:13.745Z,11.33
2019-04-10T15:39:44.597Z,14.27
2019-04-10T15:42:14.564Z,11.57
2019-04-10T15:44:44.086Z,12.53
2019-04-10T15:47:20.626Z,12.13
2019-04-10T15:49:46.656Z,14.00
2019-04-10T15:52:17.780Z,9.60
2019-04-10T15:54:47.927Z,12.43
2019-04-10T15:57:18.451Z,11.37
2019-04-10T15:59:48.403Z,13.60
2019-04-10T16:02:19.577Z,12.93
2019-04-10T16:04:49.318Z,12.97
2019-04-10T16:07:20.382Z,10.90
2019-04-10T16:09:53.682Z,11.40
2019-04-10T16:12:24.820Z,16.13
2019-04-10T16:14:54.884Z,16.43
2019-04-10T16:17:26.170Z,11.17
2019-04-10T16:19:59.708Z,16.37
2019-04-10T16:22:31.276Z,14.13
2019-04-10T16:25:03.174Z,11.73
2019-04-10T16:27:34.175Z,12.47
2019-04-10T16:30:06.624Z,11.10
2019-04-10T16:32:37.013Z,15.50
2019-04-10T16:35:07.356Z,11.60
2019-04-10T16:37:50.221Z,15.03
2019-04-10T16:40:20.703Z,18.73
2019-04-10T16:42:50.805Z,40.60
2019-04-10T16:45:20.479Z,15.87
2019-04-10T16:47:52.606Z,31.17
2019-04-10T16:50:22.157Z,35.80
2019-04-10T16:52:51.695Z,18.27
2019-04-10T16:55:21.464Z,12.33
2019-04-10T16:57:51.410Z,15.77
2019-04-10T17:00:22.238Z,9.80
2019-04-10T17:02:52.726Z,12.20
2019-04-10T17:05:22.663Z,32.00
2019-04-10T17:07:52.360Z,28.27
2019-04-10T17:10:24.432Z,36.97
2019-04-10T17:12:53.906Z,41.37
2019-04-10T17:15:23.917Z,22.07
2019-04-10T17:17:54.745Z,13.80
2019-04-10T17:20:24.955Z,15.60
2019-04-10T17:22:54.428Z,14.43
2019-04-10T17:25:24.346Z,12.50
2019-04-10T17:27:54.164Z,24.33
2019-04-10T17:30:23.886Z,18.67
2019-04-10T17:32:54.299Z,20.57
2019-04-10T17:35:24.204Z,17.70
2019-04-10T17:37:54.016Z,16.87
2019-04-10T17:40:33.096Z,19.80
2019-04-10T17:42:54.918Z,20.90
2019-04-10T17:45:25.828Z,17.20
2019-04-10T17:47:56.498Z,18.83
2019-04-10T17:50:27.879Z,16.40
2019-04-10T17:52:58.759Z,20.87
2019-04-10T17:55:28.440Z,22.20
2019-04-10T17:57:58.345Z,20.47
2019-04-10T18:00:29.778Z,14.40
2019-04-10T18:02:59.585Z,18.70
2019-04-10T18:05:29.123Z,24.73
2019-04-10T18:08:02.794Z,22.07
2019-04-10T18:10:43.502Z,13.97
2019-04-10T18:13:05.154Z,21.07
2019-04-10T18:15:35.800Z,18.13
2019-04-10T18:18:05.526Z,15.10
2019-04-10T18:20:35.942Z,13.10
2019-04-10T18:23:05.564Z,15.50
2019-04-10T18:25:38.220Z,17.80
2019-04-10T18:28:09.646Z,21.97
2019-04-10T18:30:40.321Z,25.20
2019-04-10T18:33:12.091Z,17.63
2019-04-10T18:35:43.338Z,14.03
2019-04-10T18:38:13.278Z,14.13
2019-04-10T18:40:52.216Z,15.07
2019-04-10T18:43:16.045Z,16.23
2019-04-10T18:45:58.343Z,15.80
2019-04-10T18:48:16.875Z,15.90
2019-04-10T18:50:47.468Z,20.90
2019-04-10T18:53:19.203Z,15.27
2019-04-10T18:55:49.006Z,15.70
2019-04-10T18:58:23.389Z,21.37
2019-04-10T19:00:55.328Z,19.30
2019-04-10T19:03:27.602Z,17.27
2019-04-10T19:06:00.401Z,13.23
2019-04-10T19:08:30.110Z,13.43
2019-04-10T19:11:12.883Z,13.20
2019-04-10T19:13:32.953Z,12.70
2019-04-10T19:16:03.501Z,14.27
2019-04-10T19:18:32.993Z,13.77
2019-04-10T19:21:03.236Z,16.70
2019-04-10T19:23:33.135Z,13.40
2019-04-10T19:26:03.054Z,16.97
2019-04-10T19:28:35.036Z,13.67
2019-04-10T19:31:12.832Z,11.87
2019-04-10T19:33:37.340Z,13.87
2019-04-10T19:36:08.107Z,13.03
2019-04-10T19:38:37.803Z,18.90
2019-04-10T19:41:20.123Z,12.93
2019-04-10T19:43:38.530Z,13.27
2019-04-10T19:46:09.366Z,21.00
2019-04-10T19:48:39.439Z,14.57
2019-04-10T19:51:10.313Z,15.57
2019-04-10T19:53:40.127Z,16.47
2019-04-10T19:56:10.883Z,17.17
2019-04-10T19:58:41.936Z,13.70
2019-04-10T20:01:12.534Z,14.03
2019-04-10T20:03:42.383Z,15.70
2019-04-10T20:06:12.342Z,15.67
2019-04-10T20:08:41.959Z,13.77
2019-04-10T20:11:37.789Z,12.83
2019-04-10T20:14:02.081Z,13.27
2019-04-10T20:16:31.765Z,13.97
2019-04-10T20:19:01.396Z,16.03
2019-04-10T20:21:30.890Z,18.80
2019-04-10T20:24:00.656Z,14.03
2019-04-10T20:26:31.404Z,12.77
2019-04-10T20:29:02.333Z,12.97
2019-04-10T20:31:34.640Z,14.80
2019-04-10T20:34:05.336Z,13.40
2019-04-10T20:36:35.289Z,20.57
2019-04-10T20:39:07.744Z,13.70
2019-04-10T20:41:47.605Z,16.77
2019-04-10T20:44:09.309Z,13.27
2019-04-10T20:46:38.875Z,18.07
2019-04-10T20:49:08.558Z,18.37
2019-04-10T20:51:38.047Z,14.20
2019-04-10T20:54:08.538Z,14.43
2019-04-10T20:56:38.995Z,16.87
2019-04-10T20:59:09.855Z,16.97
2019-04-10T21:01:39.798Z,17.43
2019-04-10T21:04:09.539Z,18.27
2019-04-10T21:06:41.699Z,15.23
2019-04-10T21:09:11.359Z,18.10
2019-04-10T21:11:41.827Z,15.90
2019-04-10T21:14:13.454Z,14.57
2019-04-10T21:16:42.582Z,15.73
2019-04-10T21:19:12.886Z,15.30
2019-04-10T21:21:43.422Z,17.77
2019-04-10T21:24:14.085Z,15.90
2019-04-10T21:26:44.433Z,16.37
2019-04-10T21:29:16.345Z,18.90
2019-04-10T21:31:48.329Z,17.80
2019-04-10T21:34:19.763Z,16.77
2019-04-10T21:36:49.242Z,19.60
2019-04-10T21:39:19.100Z,17.47
2019-04-10T21:41:48.836Z,19.77
2019-04-10T21:44:18.407Z,20.30
2019-04-10T21:46:48.619Z,20.87
2019-04-10T21:49:18.222Z,19.13
2019-04-10T21:51:47.766Z,21.93
2019-04-10T21:54:18.418Z,17.00
2019-04-10T21:56:49.295Z,16.03
2019-04-10T21:59:19.002Z,18.77
2019-04-10T22:01:49.313Z,17.10
2019-04-10T22:04:19.186Z,19.17
2019-04-10T22:06:49.386Z,21.47
2019-04-10T22:09:20.898Z,23.53
2019-04-10T22:11:53.033Z,18.60
2019-04-10T22:14:23.077Z,21.33
2019-04-10T22:16:52.669Z,18.33
2019-04-10T22:19:22.889Z,20.27
2019-04-10T22:21:52.391Z,17.80
2019-04-10T22:24:23.426Z,19.10
2019-04-10T22:26:54.290Z,19.07
2019-04-10T22:29:23.911Z,20.73
2019-04-10T22:31:53.513Z,18.60
2019-04-10T22:34:23.047Z,22.13
2019-04-10T22:36:53.517Z,18.03
2019-04-10T22:39:23.188Z,18.10
2019-04-10T22:41:52.690Z,15.50
2019-04-10T22:44:34.027Z,16.83
2019-04-10T22:46:54.393Z,25.63
2019-04-10T22:49:24.059Z,14.73
2019-04-10T22:51:53.856Z,17.70
2019-04-10T22:54:23.429Z,14.83
2019-04-10T22:56:54.353Z,15.50
2019-04-10T22:59:26.075Z,18.57
2019-04-10T23:02:04.473Z,16.83
2019-04-10T23:04:28.667Z,17.50
2019-04-10T23:06:58.247Z,15.53
2019-04-10T23:09:28.523Z,21.07
2019-04-10T23:11:58.224Z,18.17
2019-04-10T23:14:27.646Z,16.10
2019-04-10T23:16:57.119Z,21.57
2019-04-10T23:19:27.971Z,18.27
2019-04-10T23:21:57.785Z,18.80
2019-04-10T23:24:28.421Z,17.87
2019-04-10T23:26:58.199Z,18.30
2019-04-10T23:29:29.313Z,15.90
2019-04-10T23:31:58.719Z,18.57
2019-04-10T23:34:28.503Z,18.23
2019-04-10T23:36:59.368Z,15.57
2019-04-10T23:39:28.848Z,18.77
2019-04-10T23:41:59.031Z,23.47
2019-04-10T23:44:29.142Z,22.20
2019-04-10T23:46:59.870Z,17.90
2019-04-10T23:49:29.857Z,20.87
2019-04-10T23:52:01.229Z,14.77
2019-04-10T23:54:31.192Z,16.07
2019-04-10T23:57:01.757Z,16.90
2019-04-10T23:59:32.974Z,18.70
